KDLN/DLN METAR and TAF weather

Enter ICAO airport designator
Station Type Date Time Source
KDLN METAR 2023/06/01 15:53 UTC NOAA

KDLN 011553Z AUTO 29003KT 10SM CLR 13/09 A2995 RMK AO2 SLP110 T01280094


Station Type Date Time Source
KDLN Decoded METAR 2023/06/01 15:53 UTC NOAA

DILLON AIRPORT, MT, United States (KDLN) 45-15N 112-33W 1591M
Jun 01, 2023 - 11:53 AM EDT / 2023.06.01 1553 UTC
Wind: from the WNW (290 degrees) at 3 MPH (3 KT):0
Visibility: 10 mile(s):0
Sky conditions: clear
Temperature: 55.0 F (12.8 C)
Dew Point: 48.9 F (9.4 C)
Relative Humidity: 79%
Pressure (altimeter): 29.95 in. Hg (1014 hPa)
ob: KDLN 011553Z AUTO 29003KT 10SM CLR 13/09 A2995 RMK AO2 SLP110 T01280094
cycle: 16

Station Type Date Time Source
KDLN TAF UTC NOAA

Error!

Example: see airport list